createdAt,value
2018-04-15T00:01:23.413Z,13.30
2018-04-15T00:03:52.260Z,13.30
2018-04-15T00:06:21.107Z,13.30
2018-04-15T00:08:49.888Z,13.30
2018-04-15T00:11:19.133Z,13.20
2018-04-15T00:13:47.948Z,13.20
2018-04-15T00:16:17.103Z,13.30
2018-04-15T00:18:45.868Z,13.30
2018-04-15T00:21:14.780Z,13.20
2018-04-15T00:23:44.525Z,13.10
2018-04-15T00:26:13.344Z,13.10
2018-04-15T00:28:42.474Z,13.10
2018-04-15T00:31:11.388Z,13.10
2018-04-15T00:33:40.407Z,13.20
2018-04-15T00:36:09.434Z,13.20
2018-04-15T00:38:38.912Z,13.20
2018-04-15T00:41:07.721Z,13.20
2018-04-15T00:43:37.258Z,13.20
2018-04-15T00:46:06.178Z,13.20
2018-04-15T00:48:36.257Z,13.20
2018-04-15T00:51:05.001Z,13.20
2018-04-15T00:53:45.545Z,13.20
2018-04-15T00:56:14.387Z,13.20
2018-04-15T00:58:43.193Z,13.20
2018-04-15T01:01:12.002Z,13.20
2018-04-15T01:03:40.872Z,13.20
2018-04-15T01:06:09.696Z,13.10
2018-04-15T01:08:39.481Z,13.20
2018-04-15T01:11:08.284Z,13.10
2018-04-15T01:13:37.421Z,13.20
2018-04-15T01:16:07.019Z,13.30
2018-04-15T01:18:36.000Z,13.20
2018-04-15T01:21:05.361Z,13.30
2018-04-15T01:23:34.229Z,13.30
2018-04-15T01:26:03.213Z,13.30
2018-04-15T01:28:33.012Z,13.30
2018-04-15T01:31:02.746Z,13.30
2018-04-15T01:33:31.583Z,13.30
2018-04-15T01:36:00.401Z,13.30
2018-04-15T01:38:29.970Z,13.20
2018-04-15T01:40:59.805Z,13.30
2018-04-15T01:43:29.673Z,13.30
2018-04-15T01:45:58.729Z,13.30
2018-04-15T01:48:28.400Z,13.20
2018-04-15T01:50:57.205Z,13.20
2018-04-15T01:53:26.051Z,13.20
2018-04-15T01:55:54.754Z,13.20
2018-04-15T01:58:23.520Z,13.20
2018-04-15T02:00:52.317Z,13.20
2018-04-15T02:03:21.311Z,13.30
2018-04-15T02:05:50.127Z,13.20
2018-04-15T02:08:19.012Z,13.20
2018-04-15T02:10:47.957Z,13.20
2018-04-15T02:13:17.549Z,13.20
2018-04-15T02:15:46.480Z,13.20
2018-04-15T02:18:15.450Z,13.30
2018-04-15T02:20:44.193Z,13.30
2018-04-15T02:23:12.960Z,13.30
2018-04-15T02:25:41.691Z,13.20
2018-04-15T02:28:10.510Z,13.20
2018-04-15T02:30:40.388Z,13.10
2018-04-15T02:33:09.201Z,13.10
2018-04-15T02:35:38.242Z,13.10
2018-04-15T02:38:07.065Z,13.10
2018-04-15T02:40:35.871Z,13.10
2018-04-15T02:43:04.656Z,13.00
2018-04-15T02:45:34.176Z,13.10
2018-04-15T02:48:03.192Z,13.10
2018-04-15T02:50:32.312Z,13.10
2018-04-15T02:53:01.060Z,13.10
2018-04-15T02:55:30.279Z,13.20
2018-04-15T02:57:59.107Z,13.30
2018-04-15T03:00:27.859Z,13.20
2018-04-15T03:02:56.716Z,13.20
2018-04-15T03:05:26.453Z,13.10
2018-04-15T03:07:55.460Z,13.10
2018-04-15T03:10:25.276Z,13.10
2018-04-15T03:12:55.036Z,13.10
2018-04-15T03:15:24.771Z,13.10
2018-04-15T03:17:53.888Z,13.00
2018-04-15T03:20:22.710Z,13.10
2018-04-15T03:22:51.436Z,13.10
2018-04-15T03:25:20.334Z,13.10
2018-04-15T03:27:50.117Z,13.10
2018-04-15T03:46:31.992Z,13.10
2018-04-15T03:49:03.016Z,13.00
2018-04-15T03:51:33.959Z,13.00
2018-04-15T03:54:05.601Z,13.00
2018-04-15T03:56:35.312Z,13.00
2018-04-15T03:59:06.545Z,13.00
2018-04-15T04:01:36.356Z,13.00
2018-04-15T04:04:07.513Z,13.10
2018-04-15T04:06:37.353Z,13.10
2018-04-15T04:09:06.174Z,13.10
2018-04-15T04:11:35.730Z,13.20
2018-04-15T04:14:04.492Z,13.10
2018-04-15T04:16:33.496Z,13.20
2018-04-15T04:19:14.405Z,13.30
2018-04-15T04:21:55.897Z,13.30
2018-04-15T04:24:38.442Z,13.30
2018-04-15T04:27:07.690Z,13.20
2018-04-15T04:29:36.671Z,13.20
2018-04-15T04:32:05.603Z,13.30
2018-04-15T04:34:35.064Z,13.30
2018-04-15T04:37:03.816Z,13.30
2018-04-15T04:39:32.621Z,13.30
2018-04-15T04:42:01.462Z,13.30
2018-04-15T04:44:30.144Z,13.40
2018-04-15T04:46:58.941Z,13.40
2018-04-15T04:49:28.521Z,13.30
2018-04-15T04:51:57.396Z,13.30
2018-04-15T04:54:26.540Z,13.40
2018-04-15T04:56:56.194Z,13.60
2018-04-15T04:59:25.195Z,13.70
2018-04-15T05:01:53.969Z,13.70
2018-04-15T05:04:23.005Z,13.60
2018-04-15T05:06:51.924Z,13.70
2018-04-15T05:09:20.889Z,13.70
2018-04-15T05:11:49.819Z,13.70
2018-04-15T05:14:18.769Z,13.80
2018-04-15T05:16:47.516Z,14.00
2018-04-15T05:19:17.341Z,14.10
2018-04-15T05:21:46.180Z,14.10
2018-04-15T05:24:15.759Z,14.30
2018-04-15T05:26:44.771Z,14.20
2018-04-15T05:29:13.708Z,14.30
2018-04-15T05:31:42.462Z,14.30
2018-04-15T05:34:12.005Z,14.40
2018-04-15T05:36:40.912Z,14.40
2018-04-15T05:39:09.643Z,14.50
2018-04-15T05:41:38.625Z,14.50
2018-04-15T05:44:07.453Z,14.50
2018-04-15T05:46:36.361Z,14.50
2018-04-15T05:49:05.108Z,14.50
2018-04-15T05:51:33.891Z,14.60
2018-04-15T05:54:02.672Z,14.60
2018-04-15T05:56:32.247Z,14.70
2018-04-15T05:59:01.078Z,14.70
2018-04-15T06:01:30.547Z,14.70
2018-04-15T06:03:59.358Z,14.70
2018-04-15T06:06:28.374Z,14.90
2018-04-15T06:08:57.810Z,14.90
2018-04-15T06:11:26.691Z,14.90
2018-04-15T06:13:56.216Z,15.10
2018-04-15T06:16:25.419Z,15.10
2018-04-15T06:18:55.432Z,15.10
2018-04-15T06:21:24.270Z,15.20
2018-04-15T06:23:53.044Z,15.30
2018-04-15T06:26:21.814Z,15.30
2018-04-15T06:28:50.573Z,15.40
2018-04-15T06:31:20.291Z,16.00
2018-04-15T06:33:49.070Z,16.00
2018-04-15T06:36:18.993Z,16.30
2018-04-15T06:38:48.231Z,16.30
2018-04-15T06:41:17.015Z,16.80
2018-04-15T06:43:45.806Z,16.90
2018-04-15T06:46:15.305Z,17.10
2018-04-15T06:48:44.025Z,17.10
2018-04-15T06:51:13.157Z,17.60
2018-04-15T06:53:41.917Z,18.10
2018-04-15T06:56:10.772Z,18.20
2018-04-15T06:58:44.793Z,18.80
2018-04-15T07:01:14.845Z,18.50
2018-04-15T07:03:43.690Z,18.50
2018-04-15T07:06:12.524Z,19.00
2018-04-15T07:08:41.315Z,19.10
2018-04-15T07:11:10.554Z,18.70
2018-04-15T07:13:39.436Z,19.10
2018-04-15T07:16:08.244Z,19.40
2018-04-15T07:18:37.219Z,19.40
2018-04-15T07:21:06.035Z,19.40
2018-04-15T07:23:34.898Z,19.40
2018-04-15T07:26:03.790Z,19.70
2018-04-15T07:28:33.672Z,19.90
2018-04-15T07:31:02.823Z,20.30
2018-04-15T07:33:31.654Z,20.50
2018-04-15T07:36:00.497Z,20.40
2018-04-15T07:38:29.632Z,20.30
2018-04-15T07:40:58.522Z,20.50
2018-04-15T07:43:28.078Z,21.10
2018-04-15T07:45:56.904Z,21.10
2018-04-15T07:48:25.740Z,20.80
2018-04-15T07:50:54.511Z,21.00
2018-04-15T07:53:23.585Z,21.30
2018-04-15T07:55:53.100Z,21.60
2018-04-15T07:58:21.915Z,21.50
2018-04-15T08:00:50.789Z,21.60
2018-04-15T08:03:20.429Z,21.90
2018-04-15T08:05:49.416Z,21.80
2018-04-15T08:08:18.280Z,21.80
2018-04-15T08:10:47.310Z,21.60
2018-04-15T08:13:16.164Z,22.20
2018-04-15T08:15:45.161Z,21.90
2018-04-15T08:18:14.878Z,22.10
2018-04-15T08:20:43.948Z,22.10
2018-04-15T08:23:13.880Z,22.40
2018-04-15T08:25:42.789Z,22.40
2018-04-15T08:28:11.586Z,22.60
2018-04-15T08:30:41.195Z,22.10
2018-04-15T08:33:10.609Z,22.10
2018-04-15T08:35:40.254Z,22.10
2018-04-15T08:38:09.751Z,22.10
2018-04-15T08:40:38.629Z,22.30
2018-04-15T08:43:07.302Z,22.40
2018-04-15T08:45:36.107Z,22.10
2018-04-15T08:48:04.878Z,22.40
2018-04-15T08:50:33.646Z,22.00
2018-04-15T08:53:02.407Z,22.30
2018-04-15T08:55:31.527Z,22.60
2018-04-15T08:58:04.242Z,22.70
2018-04-15T09:00:34.170Z,22.70
2018-04-15T09:03:03.039Z,22.70
2018-04-15T09:05:32.078Z,23.10
2018-04-15T09:08:00.932Z,22.90
2018-04-15T09:10:29.838Z,22.80
2018-04-15T09:12:58.821Z,23.00
2018-04-15T09:15:28.471Z,23.30
2018-04-15T09:17:57.312Z,23.30
2018-04-15T09:20:26.888Z,23.40
2018-04-15T09:22:56.337Z,23.40
2018-04-15T09:25:25.614Z,23.50
2018-04-15T09:27:54.511Z,23.90
2018-04-15T09:30:24.507Z,23.80
2018-04-15T09:32:53.228Z,23.90
2018-04-15T09:35:22.823Z,23.50
2018-04-15T09:37:51.556Z,23.50
2018-04-15T09:40:21.140Z,23.70
2018-04-15T09:42:49.996Z,23.70
2018-04-15T09:45:18.816Z,23.70
2018-04-15T09:47:47.578Z,23.70
2018-04-15T09:50:16.385Z,23.70
2018-04-15T09:52:45.909Z,24.10
2018-04-15T09:55:15.656Z,24.30
2018-04-15T09:57:44.438Z,24.30
2018-04-15T10:00:13.513Z,24.20
2018-04-15T10:02:42.504Z,24.70
2018-04-15T10:05:11.270Z,24.60
2018-04-15T10:07:40.835Z,24.40
2018-04-15T10:10:09.578Z,24.40
2018-04-15T10:12:39.350Z,25.00
2018-04-15T10:15:08.210Z,25.00
2018-04-15T10:17:37.261Z,25.30
2018-04-15T10:20:06.944Z,24.30
2018-04-15T10:22:36.525Z,24.20
2018-04-15T10:25:05.354Z,24.20
2018-04-15T10:27:34.740Z,24.40
2018-04-15T10:30:03.885Z,24.50
2018-04-15T10:32:32.775Z,24.20
2018-04-15T10:35:02.538Z,24.40
2018-04-15T10:37:31.451Z,24.00
2018-04-15T10:40:01.116Z,24.40
2018-04-15T10:42:30.624Z,24.40
2018-04-15T10:44:59.456Z,24.60
2018-04-15T10:47:29.236Z,24.40
2018-04-15T10:49:58.054Z,24.40
2018-04-15T10:52:29.382Z,24.00
2018-04-15T10:54:59.758Z,24.00
2018-04-15T10:57:28.643Z,23.60
2018-04-15T10:59:58.129Z,23.10
2018-04-15T11:02:27.267Z,23.10
2018-04-15T11:04:56.065Z,23.40
2018-04-15T11:07:25.086Z,23.20
2018-04-15T11:09:54.791Z,22.80
2018-04-15T11:25:24.766Z,23.10
2018-04-15T11:27:54.720Z,23.20
2018-04-15T11:30:23.666Z,23.20
2018-04-15T11:32:52.577Z,23.30
2018-04-15T11:35:21.790Z,23.60
2018-04-15T11:37:50.917Z,23.80
2018-04-15T11:40:19.733Z,23.70
2018-04-15T11:42:48.732Z,23.20
2018-04-15T11:45:17.849Z,23.40
2018-04-15T11:47:46.670Z,23.20
2018-04-15T11:50:16.231Z,23.40
2018-04-15T11:52:46.077Z,23.60
2018-04-15T11:55:16.604Z,23.50
2018-04-15T11:57:45.580Z,23.50
2018-04-15T12:00:14.316Z,23.50
2018-04-15T12:02:43.098Z,23.60
2018-04-15T12:05:12.246Z,23.20
2018-04-15T12:07:42.184Z,23.20
2018-04-15T12:10:11.773Z,23.20
2018-04-15T12:12:40.599Z,23.20
2018-04-15T12:15:10.188Z,23.20
2018-04-15T12:17:39.848Z,23.10
2018-04-15T12:20:08.862Z,23.10
2018-04-15T12:22:37.652Z,23.10
2018-04-15T12:25:06.418Z,23.00
2018-04-15T12:27:35.280Z,23.40
2018-04-15T12:30:05.418Z,22.80
2018-04-15T12:32:35.091Z,23.10
2018-04-15T12:35:03.894Z,23.10
2018-04-15T12:37:33.480Z,23.00
2018-04-15T12:40:02.378Z,22.90
2018-04-15T12:42:31.162Z,22.90
2018-04-15T12:45:00.101Z,22.90
2018-04-15T12:47:29.463Z,23.20
2018-04-15T12:49:58.463Z,23.20
2018-04-15T12:52:27.230Z,23.10
2018-04-15T12:54:56.454Z,23.30
2018-04-15T12:57:26.127Z,23.50
2018-04-15T12:59:55.716Z,23.60
2018-04-15T13:02:24.544Z,23.60
2018-04-15T13:04:53.295Z,23.60
2018-04-15T13:07:22.944Z,23.40
2018-04-15T13:09:51.659Z,23.40
2018-04-15T13:12:21.537Z,23.90
2018-04-15T13:14:50.447Z,23.90
2018-04-15T13:17:19.652Z,24.00
2018-04-15T13:19:49.523Z,24.00
2018-04-15T13:22:18.311Z,24.00
2018-04-15T13:24:48.409Z,23.90
2018-04-15T13:27:17.372Z,24.00
2018-04-15T13:29:46.948Z,24.40
2018-04-15T13:32:17.167Z,24.40
2018-04-15T13:34:46.486Z,24.20
2018-04-15T13:37:15.872Z,24.30
2018-04-15T13:39:50.432Z,24.40
2018-04-15T13:42:20.368Z,24.60
2018-04-15T13:44:49.714Z,24.50
2018-04-15T13:47:19.200Z,24.50
2018-04-15T13:49:49.434Z,24.40
2018-04-15T13:52:19.486Z,24.40
2018-04-15T13:54:49.484Z,24.30
2018-04-15T13:57:19.181Z,24.30
2018-04-15T13:59:47.937Z,24.20
2018-04-15T14:02:17.487Z,24.20
2018-04-15T14:04:46.642Z,23.90
2018-04-15T14:07:15.772Z,24.00
2018-04-15T14:09:45.375Z,24.20
2018-04-15T14:12:14.232Z,24.10
2018-04-15T14:14:43.126Z,24.30
2018-04-15T14:17:11.874Z,24.20
2018-04-15T14:19:41.388Z,24.00
2018-04-15T14:22:10.242Z,24.00
2018-04-15T14:24:39.092Z,24.20
2018-04-15T14:27:08.822Z,24.00
2018-04-15T14:29:37.640Z,24.00
2018-04-15T14:32:08.175Z,24.00
2018-04-15T14:34:37.107Z,24.00
2018-04-15T14:37:06.581Z,23.90
2018-04-15T14:39:35.652Z,23.90
2018-04-15T14:42:05.320Z,23.80
2018-04-15T14:44:34.364Z,23.80
2018-04-15T14:47:03.200Z,23.80
2018-04-15T14:49:31.977Z,23.80
2018-04-15T14:52:02.486Z,23.50
2018-04-15T14:54:31.330Z,23.50
2018-04-15T14:57:00.927Z,23.40
2018-04-15T14:59:29.859Z,23.40
2018-04-15T15:01:59.602Z,23.40
2018-04-15T15:04:28.415Z,23.40
2018-04-15T15:06:58.164Z,23.30
2018-04-15T15:09:27.894Z,23.30
2018-04-15T15:11:57.642Z,23.30
2018-04-15T15:14:26.465Z,23.30
2018-04-15T15:16:55.356Z,23.30
2018-04-15T15:19:25.187Z,23.30
2018-04-15T15:21:54.204Z,23.30
2018-04-15T15:24:22.962Z,23.30
2018-04-15T15:26:52.484Z,23.00
2018-04-15T15:29:21.303Z,23.00
2018-04-15T15:31:50.246Z,22.90
2018-04-15T15:34:19.869Z,22.80
2018-04-15T15:36:49.709Z,22.80
2018-04-15T15:39:18.704Z,22.70
2018-04-15T15:41:47.514Z,22.60
2018-04-15T15:44:16.581Z,22.50
2018-04-15T15:46:46.317Z,22.30
2018-04-15T15:49:16.018Z,22.20
2018-04-15T15:51:45.299Z,22.20
2018-04-15T15:54:30.608Z,22.00
2018-04-15T15:56:59.339Z,22.00
2018-04-15T15:59:28.236Z,21.80
2018-04-15T16:01:56.898Z,21.70
2018-04-15T16:04:26.366Z,21.40
2018-04-15T16:06:55.269Z,21.30
2018-04-15T16:09:23.996Z,21.20
2018-04-15T16:11:52.691Z,21.20
2018-04-15T16:14:21.494Z,21.10
2018-04-15T16:16:50.243Z,21.10
2018-04-15T16:19:19.701Z,20.90
2018-04-15T16:21:48.566Z,20.90
2018-04-15T16:24:17.409Z,20.80
2018-04-15T16:26:46.340Z,20.60
2018-04-15T16:29:15.196Z,20.50
2018-04-15T16:31:44.087Z,20.40
2018-04-15T16:34:12.818Z,20.20
2018-04-15T16:36:41.671Z,20.00
2018-04-15T16:39:10.433Z,19.90
2018-04-15T16:41:40.193Z,19.70
2018-04-15T16:44:10.344Z,19.50
2018-04-15T16:46:39.388Z,19.40
2018-04-15T16:49:08.582Z,19.30
2018-04-15T16:51:38.079Z,19.20
2018-04-15T16:54:07.609Z,19.10
2018-04-15T16:56:36.772Z,19.10
2018-04-15T16:59:05.643Z,19.00
2018-04-15T17:01:34.620Z,19.00
2018-04-15T17:04:04.067Z,19.20
2018-04-15T17:06:32.871Z,19.30
2018-04-15T17:09:02.398Z,19.30
2018-04-15T17:11:31.177Z,19.30
2018-04-15T17:13:59.942Z,19.40
2018-04-15T17:16:29.348Z,19.40
2018-04-15T17:18:59.133Z,19.30
2018-04-15T17:21:28.116Z,19.40
2018-04-15T17:23:57.065Z,19.40
2018-04-15T17:26:25.819Z,19.50
2018-04-15T17:28:54.550Z,19.50
2018-04-15T17:31:24.132Z,19.50
2018-04-15T17:33:53.020Z,19.50
2018-04-15T17:36:21.743Z,19.50
2018-04-15T17:38:50.557Z,19.40
2018-04-15T17:41:19.398Z,19.40
2018-04-15T17:43:48.304Z,19.30
2018-04-15T17:46:17.635Z,19.30
2018-04-15T17:48:46.538Z,19.20
2018-04-15T17:51:15.504Z,19.20
2018-04-15T17:53:44.907Z,19.10
2018-04-15T17:56:13.655Z,19.10
2018-04-15T17:58:43.166Z,19.00
2018-04-15T18:01:18.906Z,18.90
2018-04-15T18:03:48.352Z,18.90
2018-04-15T18:06:17.505Z,18.90
2018-04-15T18:08:46.803Z,18.90
2018-04-15T18:11:16.705Z,18.80
2018-04-15T18:13:46.001Z,18.80
2018-04-15T18:16:14.987Z,18.80
2018-04-15T18:18:44.047Z,18.80
2018-04-15T18:21:12.698Z,18.80
2018-04-15T18:23:42.163Z,18.70
2018-04-15T18:26:11.365Z,18.70
2018-04-15T18:28:40.086Z,18.70
2018-04-15T18:31:09.070Z,18.60
2018-04-15T18:33:37.889Z,18.60
2018-04-15T18:36:06.656Z,18.50
2018-04-15T18:38:36.113Z,18.40
2018-04-15T18:41:04.817Z,18.40
2018-04-15T18:43:33.565Z,18.40
2018-04-15T18:46:02.247Z,18.30
2018-04-15T18:48:30.966Z,18.30
2018-04-15T18:50:59.713Z,18.30
2018-04-15T18:53:28.509Z,18.20
2018-04-15T18:55:57.274Z,18.20
2018-04-15T18:58:26.712Z,18.10
2018-04-15T19:00:55.352Z,18.10
2018-04-15T19:03:24.948Z,18.00
2018-04-15T19:05:53.639Z,18.00
2018-04-15T19:08:23.312Z,18.00
2018-04-15T19:10:52.103Z,17.90
2018-04-15T19:13:21.164Z,17.80
2018-04-15T19:15:50.166Z,17.70
2018-04-15T19:18:23.143Z,17.60
2018-04-15T19:20:52.371Z,17.50
2018-04-15T19:23:21.250Z,17.30
2018-04-15T19:25:50.410Z,17.30
2018-04-15T19:28:20.136Z,17.10
2018-04-15T19:30:49.048Z,17.10
2018-04-15T19:33:17.723Z,17.00
2018-04-15T19:35:57.270Z,17.00
2018-04-15T19:38:26.118Z,16.90
2018-04-15T19:40:55.625Z,16.90
2018-04-15T19:43:25.284Z,16.90
2018-04-15T19:45:54.209Z,16.80
2018-04-15T19:48:23.027Z,16.80
2018-04-15T19:50:53.003Z,16.70
2018-04-15T19:53:21.721Z,16.60
2018-04-15T19:55:51.188Z,16.60
2018-04-15T19:58:19.967Z,16.60
2018-04-15T20:00:48.702Z,16.60
2018-04-15T20:03:18.409Z,16.50
2018-04-15T20:05:47.869Z,16.50
2018-04-15T20:08:16.648Z,16.40
2018-04-15T20:10:45.439Z,16.40
2018-04-15T20:13:14.461Z,16.50
2018-04-15T20:15:43.290Z,16.40
2018-04-15T20:18:12.122Z,16.40
2018-04-15T20:20:41.223Z,16.40
2018-04-15T20:23:09.987Z,16.30
2018-04-15T20:25:39.384Z,16.40
2018-04-15T20:28:08.098Z,16.40
2018-04-15T20:30:36.820Z,16.50
2018-04-15T20:33:06.296Z,16.40
2018-04-15T20:35:34.982Z,16.40
2018-04-15T20:38:04.758Z,16.50
2018-04-15T20:40:33.690Z,16.40
2018-04-15T20:43:02.750Z,16.50
2018-04-15T20:45:31.526Z,16.50
2018-04-15T20:48:00.498Z,16.50
2018-04-15T20:50:29.183Z,16.40
2018-04-15T20:52:58.756Z,16.00
2018-04-15T20:55:28.591Z,15.90
2018-04-15T20:57:57.494Z,15.90
2018-04-15T21:00:27.012Z,15.60
2018-04-15T21:02:55.877Z,15.60
2018-04-15T21:05:25.385Z,15.40
2018-04-15T21:07:54.863Z,15.40
2018-04-15T21:10:23.694Z,15.40
2018-04-15T21:12:52.787Z,15.30
2018-04-15T21:15:21.514Z,15.30
2018-04-15T21:17:50.492Z,15.30
2018-04-15T21:20:19.511Z,15.30
2018-04-15T21:22:48.226Z,15.30
2018-04-15T21:25:17.304Z,15.40
2018-04-15T21:27:46.020Z,15.50
2018-04-15T21:30:14.907Z,15.60
2018-04-15T21:45:43.826Z,15.80
2018-04-15T21:48:12.838Z,15.60
2018-04-15T21:50:41.754Z,15.60
2018-04-15T21:53:12.148Z,15.60
2018-04-15T21:55:41.303Z,15.80
2018-04-15T21:58:10.690Z,15.80
2018-04-15T22:00:41.448Z,16.00
2018-04-15T22:03:10.505Z,15.90
2018-04-15T22:05:39.651Z,15.90
2018-04-15T22:08:09.355Z,15.90
2018-04-15T22:10:38.162Z,15.90
2018-04-15T22:13:08.893Z,16.00
2018-04-15T22:15:38.239Z,16.00
2018-04-15T22:18:07.082Z,16.00
2018-04-15T22:20:35.903Z,16.00
2018-04-15T22:23:04.875Z,16.10
2018-04-15T22:25:33.740Z,16.00
2018-04-15T22:28:02.618Z,16.10
2018-04-15T22:30:31.591Z,16.10
2018-04-15T22:33:01.417Z,16.00
2018-04-15T22:35:31.226Z,16.00
2018-04-15T22:38:00.198Z,16.00
2018-04-15T22:40:28.959Z,16.10
2018-04-15T22:42:57.867Z,16.20
2018-04-15T22:45:26.613Z,16.10
2018-04-15T22:48:01.062Z,16.10
2018-04-15T22:50:35.473Z,16.00
2018-04-15T22:53:04.280Z,15.90
2018-04-15T22:55:33.099Z,15.70
2018-04-15T22:58:03.092Z,15.40
2018-04-15T23:00:31.984Z,15.40
2018-04-15T23:03:00.906Z,15.20
2018-04-15T23:05:29.790Z,15.00
2018-04-15T23:07:59.701Z,14.60
2018-04-15T23:10:28.790Z,14.60
2018-04-15T23:12:57.893Z,14.40
2018-04-15T23:15:26.847Z,14.30
2018-04-15T23:17:55.830Z,14.10
2018-04-15T23:20:24.773Z,13.90
2018-04-15T23:22:53.629Z,13.80
2018-04-15T23:25:22.524Z,13.70
2018-04-15T23:27:51.543Z,13.50
2018-04-15T23:30:20.408Z,13.50
2018-04-15T23:32:49.308Z,13.40
2018-04-15T23:35:18.223Z,13.40
2018-04-15T23:37:47.890Z,13.30
2018-04-15T23:40:16.788Z,13.30
2018-04-15T23:42:45.525Z,13.20
2018-04-15T23:45:15.341Z,12.90
2018-04-15T23:47:45.024Z,12.80
2018-04-15T23:50:13.808Z,12.80
2018-04-15T23:52:43.090Z,12.80
2018-04-15T23:55:12.094Z,12.80
2018-04-15T23:57:41.080Z,12.80
